Latest Coastal Weather Observations for Flinders Reef

IDQ60701

Issued at 11:51 am EST Friday 27 March 2015 (issued every 10 minutes, with the page automatically refreshed every 10 minutes)

About coastal observations | Map of coastal stations | Coastal observations for QLD | Marine services | Other Formats
Station Details ID: 200783 Name: FLINDERS REEF Lat: -17.72 Lon: 148.45 Height: 2.6 m
Data from the previous 72 hours. | See also: Recent months at Flinders Reef
Date/Time
EST
Temp

°C
Wind Pressure Rain
since 9am
mm
Weather Cloud Vis
km
Sea
Height
m
Swell
Dir
 
Speed
knots
Gust
knots
hPa Trend Height
m
Period
s
Dir
27/11:30am - E 14 16 1015.4 - - - - - - - - -
27/11:24am - E 14 - 1015.5 - - - - - - - - -
27/11:00am - E 14 15 1015.9 - - - - - - - - -
27/10:30am - E 15 17 1016.3 - - - - - - - - -
27/10:24am - E 15 - 1016.2 - - - - - - - - -
27/10:00am - E 13 16 1016.5 - - - - - - - - -
27/09:30am - E 11 14 1016.5 - - - - - - - - -
27/09:24am - E 12 - 1016.4 - - - - - - - - -
27/09:00am - E 14 15 1016.5 - - - - - - - - -
27/08:30am - E 19 26 1016.4 - - - - - - - - -
27/08:26am - ESE 16 24 1016.4 - - - - - - - - -
27/08:24am - ESE 15 - 1016.3 - - - - - - - - -
27/08:00am - ESE 12 14 1016.2 - - - - - - - - -
27/07:30am - E 11 13 1016.0 - - - - - - - - -
27/07:24am - E 11 - 1015.8 - - - - - - - - -
27/07:00am - E 12 14 1015.6 - - - - - - - - -
27/06:30am - ESE 12 14 1015.4 - - - - - - - - -
27/06:24am - ESE 12 - 1015.3 - - - - - - - - -
27/06:00am - E 12 13 1015.3 - - - - - - - - -
27/05:30am - E 11 13 1015.0 - - - - - - - - -
27/05:24am - E 11 - 1014.8 - - - - - - - - -
27/05:00am - E 9 11 1014.7 - - - - - - - - -
27/04:30am - E 9 10 1014.5 - - - - - - - - -
27/04:24am - E 9 - 1014.4 - - - - - - - - -
27/04:00am - E 10 12 1014.3 - - - - - - - - -
27/03:30am - E 11 13 1014.4 - - - - - - - - -
27/03:24am - E 11 - 1014.3 - - - - - - - - -
27/03:00am - E 10 11 1014.4 - - - - - - - - -
27/02:30am - ESE 10 11 1014.6 - - - - - - - - -
27/02:24am - ESE 10 - 1014.5 - - - - - - - - -
27/02:00am - ESE 9 11 1014.9 - - - - - - - - -
27/01:30am - ESE 8 9 1015.2 - - - - - - - - -
27/01:24am - ESE 8 - 1015.1 - - - - - - - - -
27/01:00am - ESE 10 12 1015.3 - - - - - - - - -
27/12:30am - SE 10 11 1015.6 - - - - - - - - -
27/12:24am - SE 9 - 1015.5 - - - - - - - - -
27/12:00am - SE 9 11 1015.7 - - - - - - - - -
 
Date/Time
EST
Temp

°C
Wind Pressure Rain
since 9am
mm
Weather Cloud Vis
km
Sea
Height
m
Swell
Dir
 
Speed
knots
Gust
knots
hPa Trend Height
m
Period
s
Dir
26/11:30pm - SE 10 11 1015.8 - - - - - - - - -
26/11:24pm - SE 10 - 1015.7 - - - - - - - - -
26/11:00pm - SE 10 12 1015.9 - - - - - - - - -
26/10:30pm - SE 12 14 1015.9 - - - - - - - - -
26/10:24pm - SE 11 - 1015.9 - - - - - - - - -
26/10:00pm - SE 12 14 1015.8 - - - - - - - - -
26/09:30pm - SE 13 16 1015.8 - - - - - - - - -
26/09:24pm - SE 13 - 1015.7 - - - - - - - - -
26/09:00pm - SE 13 15 1015.8 - - - - - - - - -
26/08:30pm - SE 13 15 1015.9 - - - - - - - - -
26/08:24pm - SE 13 - 1015.7 - - - - - - - - -
26/08:00pm - SE 12 15 1015.6 - - - - - - - - -
26/07:30pm - SE 11 13 1015.4 - - - - - - - - -
26/07:24pm - SE 11 - 1015.2 - - - - - - - - -
26/07:00pm - SE 11 13 1015.0 - - - - - - - - -
26/06:30pm - SSE 12 15 1014.7 - - - - - - - - -
26/06:24pm - SE 12 - 1014.5 - - - - - - - - -
26/06:00pm - SE 13 16 1014.4 - - - - - - - - -
26/05:30pm - SE 12 14 1014.2 - - - - - - - - -
26/05:24pm - SE 12 - 1014.1 - - - - - - - - -
26/05:00pm - SE 12 14 1013.8 - - - - - - - - -
26/04:30pm - ESE 12 14 1013.7 - - - - - - - - -
26/04:24pm - SE 13 - 1013.5 - - - - - - - - -
26/04:00pm - SE 12 15 1013.6 - - - - - - - - -
26/03:30pm - SE 13 15 1013.4 - - - - - - - - -
26/03:24pm - SE 13 - 1013.4 - - - - - - - - -
26/03:00pm - SE 13 15 1013.4 - - - - - - - - -
26/02:30pm - ESE 13 15 1013.6 - - - - - - - - -
26/02:24pm - ESE 12 - 1013.5 - - - - - - - - -
26/02:00pm - SE 12 15 1013.9 - - - - - - - - -
26/01:30pm - ESE 13 14 1014.1 - - - - - - - - -
26/01:24pm - ESE 13 - 1014.1 - - - - - - - - -
26/01:00pm - ESE 13 14 1014.5 - - - - - - - - -
26/12:30pm - ESE 11 13 1015.0 - - - - - - - - -
26/12:24pm - ESE 11 - 1015.0 - - - - - - - - -
26/12:00pm - ESE 12 14 1015.2 - - - - - - - - -
26/11:30am - ESE 13 15 1015.5 - - - - - - - - -
26/11:24am - ESE 13 - 1015.5 - - - - - - - - -
26/10:30am - E 12 15 1015.8 - - - - - - - - -
26/10:24am - E 13 - 1015.7 - - - - - - - - -
26/10:00am - E 13 16 1016.0 - - - - - - - - -
26/09:30am - E 13 15 1016.1 - - - - - - - - -
26/09:24am - E 13 - 1016.0 - - - - - - - - -
26/09:00am - E 12 14 1016.1 - - - - - - - - -
26/08:30am - E 14 16 1015.9 - - - - - - - - -
26/08:24am - E 14 - 1015.8 - - - - - - - - -
26/08:00am - E 14 16 1015.6 - - - - - - - - -
26/07:30am - E 13 16 1015.5 - - - - - - - - -
26/07:24am - E 12 - 1015.4 - - - - - - - - -
26/07:00am - ESE 13 14 1015.4 - - - - - - - - -
26/06:30am - ESE 13 16 1015.2 - - - - - - - - -
26/06:24am - ESE 12 - 1015.1 - - - - - - - - -
26/06:00am - ESE 12 14 1015.0 - - - - - - - - -
26/05:30am - ESE 12 14 1014.6 - - - - - - - - -
26/05:24am - ESE 12 - 1014.5 - - - - - - - - -
26/05:00am - ESE 10 12 1014.5 - - - - - - - - -
26/04:30am - ESE 9 11 1014.2 - - - - - - - - -
26/04:24am - ESE 9 - 1014.0 - - - - - - - - -
26/04:00am - ESE 9 11 1014.1 - - - - - - - - -
26/03:30am - ESE 10 11 1014.1 - - - - - - - - -
26/03:24am - ESE 11 - 1014.0 - - - - - - - - -
26/03:00am - ESE 11 12 1014.2 - - - - - - - - -
26/02:30am - ESE 11 14 1014.3 - - - - - - - - -
26/02:24am - ESE 10 - 1014.2 - - - - - - - - -
26/02:00am - ESE 11 13 1014.4 - - - - - - - - -
26/01:30am - ESE 12 14 1014.6 - - - - - - - - -
26/01:24am - ESE 12 - 1014.4 - - - - - - - - -
26/01:00am - ESE 12 14 1014.6 - - - - - - - - -
26/12:30am - ESE 13 15 1014.8 - - - - - - - - -
26/12:24am - ESE 12 - 1014.7 - - - - - - - - -
26/12:00am - ESE 11 13 1015.0 - - - - - - - - -
 
Date/Time
EST
Temp

°C
Wind Pressure Rain
since 9am
mm
Weather Cloud Vis
km
Sea
Height
m
Swell
Dir
 
Speed
knots
Gust
knots
hPa Trend Height
m
Period
s
Dir
25/11:30pm - ESE 13 16 1015.1 - - - - - - - - -
25/11:24pm - ESE 12 - 1015.0 - - - - - - - - -
25/11:00pm - ESE 12 15 1015.3 - - - - - - - - -
25/10:30pm - ESE 12 13 1015.6 - - - - - - - - -
25/10:24pm - ESE 12 - 1015.5 - - - - - - - - -
25/10:00pm - SE 12 13 1015.7 - - - - - - - - -
25/09:30pm - SE 12 14 1015.7 - - - - - - - - -
25/09:24pm - SE 13 - 1015.6 - - - - - - - - -
25/09:00pm - SE 12 14 1015.6 - - - - - - - - -
25/08:30pm - SE 11 13 1015.2 - - - - - - - - -
25/08:24pm - SE 11 - 1015.0 - - - - - - - - -
25/08:00pm - SE 11 14 1014.9 - - - - - - - - -
25/07:30pm - SE 11 13 1014.8 - - - - - - - - -
25/07:24pm - SSE 11 - 1014.6 - - - - - - - - -
25/07:00pm - SSE 10 12 1014.5 - - - - - - - - -
25/06:30pm - SE 11 12 1014.0 - - - - - - - - -
25/06:24pm - SE 10 - 1013.9 - - - - - - - - -
25/06:00pm - SSE 9 11 1013.8 - - - - - - - - -
25/05:30pm - SSE 9 11 1013.6 - - - - - - - - -
25/05:24pm - SSE 9 - 1013.3 - - - - - - - - -
25/05:00pm - SE 9 11 1013.3 - - - - - - - - -
25/04:30pm - SE 9 11 1013.2 - - - - - - - - -
25/04:24pm - SE 9 - 1013.1 - - - - - - - - -
25/04:00pm - SE 9 11 1013.2 - - - - - - - - -
25/03:30pm - SE 9 11 1013.0 - - - - - - - - -
25/03:24pm - SE 9 - 1012.8 - - - - - - - - -
25/03:00pm - SSE 8 9 1013.0 - - - - - - - - -
25/02:30pm - SSE 5 7 1013.4 - - - - - - - - -
25/02:24pm - SE 6 - 1013.3 - - - - - - - - -
25/02:00pm - E 6 7 1013.6 - - - - - - - - -
25/01:30pm - E 5 6 1013.7 - - - - - - - - -
25/01:24pm - E 5 - 1013.7 - - - - - - - - -
25/01:00pm - E 5 7 1013.9 - - - - - - - - -
25/12:30pm - E 5 7 1014.3 - - - - - - - - -
25/12:24pm - E 4 - 1014.3 - - - - - - - - -
25/12:00pm - E 5 6 1014.8 - - - - - - - - -
25/11:30am - E 4 6 1015.2 - - - - - - - - -
25/11:24am - E 4 - 1015.2 - - - - - - - - -
25/11:00am - E 5 7 1015.5 - - - - - - - - -
25/10:30am - E 5 7 1015.7 - - - - - - - - -
25/10:24am - E 5 - 1015.7 - - - - - - - - -
25/10:00am - E 6 7 1015.8 - - - - - - - - -
25/09:30am - E 6 7 1015.9 - - - - - - - - -
25/09:24am - E 6 - 1015.8 - - - - - - - - -
25/09:00am - E 7 8 1016.0 - - - - - - - - -
25/08:30am - E 7 9 1015.8 - - - - - - - - -
25/08:24am - E 7 - 1015.6 - - - - - - - - -
25/08:00am - E 8 9 1015.6 - - - - - - - - -
25/07:30am - E 8 10 1015.1 - - - - - - - - -
25/07:24am - E 8 - 1014.9 - - - - - - - - -
25/07:00am - E 8 11 1014.8 - - - - - - - - -
25/06:30am - ESE 8 10 1014.4 - - - - - - - - -
25/06:24am - SSE 7 - 1014.3 - - - - - - - - -
25/06:00am - E 7 9 1014.2 - - - - - - - - -
25/05:30am - E 7 8 1014.1 - - - - - - - - -
25/05:24am - E 7 - 1014.0 - - - - - - - - -
25/05:00am - E 8 10 1013.9 - - - - - - - - -
25/04:30am - E 10 11 1013.6 - - - - - - - - -
25/04:24am - E 10 - 1013.4 - - - - - - - - -
25/04:00am - E 9 10 1013.3 - - - - - - - - -
25/03:30am - E 7 9 1013.5 - - - - - - - - -
25/03:24am - E 8 - 1013.4 - - - - - - - - -
25/03:00am - E 8 10 1013.7 - - - - - - - - -
25/02:30am - E 8 9 1013.7 - - - - - - - - -
25/02:24am - E 9 - 1013.6 - - - - - - - - -
25/02:00am - E 9 11 1013.8 - - - - - - - - -
25/01:30am - E 9 11 1014.1 - - - - - - - - -
25/01:24am - E 8 - 1014.0 - - - - - - - - -
25/01:00am - E 9 11 1014.2 - - - - - - - - -
25/12:30am - E 9 10 1014.4 - - - - - - - - -
25/12:24am - E 9 - 1014.4 - - - - - - - - -
25/12:00am - E 9 10 1014.8 - - - - - - - - -
 
Date/Time
EST
Temp

°C
Wind Pressure Rain
since 9am
mm
Weather Cloud Vis
km
Sea
Height
m
Swell
Dir
 
Speed
knots
Gust
knots
hPa Trend Height
m
Period
s
Dir
24/11:30pm - ESE 9 10 1015.0 - - - - - - - - -
24/11:24pm - ESE 10 - 1014.9 - - - - - - - - -
24/11:00pm - ESE 11 13 1014.7 - - - - - - - - -
24/10:30pm - SE 11 13 1014.8 - - - - - - - - -
24/10:24pm - SE 11 - 1014.8 - - - - - - - - -
24/10:00pm - SE 10 11 1015.1 - - - - - - - - -
24/09:30pm - SSE 10 11 1014.8 - - - - - - - - -
24/09:24pm - SE 9 - 1014.7 - - - - - - - - -
24/09:00pm - SE 10 12 1014.7 - - - - - - - - -
24/08:30pm - SE 10 13 1014.4 - - - - - - - - -
24/08:24pm - SE 11 - 1014.2 - - - - - - - - -
24/07:30pm - SE 11 13 1013.9 - - - - - - - - -
24/07:24pm - SE 11 - 1013.7 - - - - - - - - -
24/07:00pm - SE 11 13 1013.7 - - - - - - - - -
24/06:30pm - SE 11 13 1013.5 - - - - - - - - -
24/06:24pm - SE 11 - 1013.3 - - - - - - - - -
24/06:00pm - SE 11 12 1013.2 - - - - - - - - -
24/05:30pm - SE 10 13 1013.1 - - - - - - - - -
24/05:24pm - SE 11 - 1012.9 - - - - - - - - -
24/05:00pm - ESE 10 12 1013.0 - - - - - - - - -
24/04:30pm - ESE 10 11 1012.8 - - - - - - - - -
24/04:24pm - ESE 9 - 1012.6 - - - - - - - - -
24/04:00pm - ESE 9 11 1012.6 - - - - - - - - -
24/03:30pm - ESE 10 11 1012.5 - - - - - - - - -
24/03:24pm - ESE 10 - 1012.3 - - - - - - - - -
24/03:00pm - ESE 10 12 1012.5 - - - - - - - - -
24/02:30pm - ESE 8 11 1012.7 - - - - - - - - -
24/02:24pm - ESE 8 - 1012.7 - - - - - - - - -
24/02:00pm - ESE 8 9 1013.1 - - - - - - - - -
24/01:30pm - ESE 8 9 1013.4 - - - - - - - - -
24/01:24pm - ESE 8 - 1013.4 - - - - - - - - -
24/01:00pm - SSE 7 8 1013.7 - - - - - - - - -
24/12:30pm - ENE 6 8 1013.9 - - - - - - - - -
24/12:24pm - ENE 6 - 1013.9 - - - - - - - - -
24/12:00pm - ENE 6 8 1014.1 - - - - - - - - -

Other Formats:

Comma delimited format used in spreadsheet applications
http://www.bom.gov.au/fwo/IDQ60701/IDQ60701.94290.axf

JavaScript Object Notation format (JSON) in row-major order
http://www.bom.gov.au/fwo/IDQ60701/IDQ60701.94290.json